createdAt,value
2022-09-14T00:02:08.487Z,16.00
2022-09-14T00:07:10.352Z,21.80
2022-09-14T00:12:12.165Z,30.00
2022-09-14T00:17:13.904Z,24.83
2022-09-14T00:22:15.619Z,17.80
2022-09-14T00:27:17.885Z,17.55
2022-09-14T00:32:19.713Z,18.55
2022-09-14T00:37:21.363Z,21.98
2022-09-14T00:42:23.085Z,19.95
2022-09-14T00:47:25.897Z,25.60
2022-09-14T00:52:30.616Z,23.30
2022-09-14T00:57:43.776Z,21.35
2022-09-14T01:02:45.686Z,19.85
2022-09-14T01:08:11.850Z,21.75
2022-09-14T01:13:37.059Z,21.58
2022-09-14T01:18:50.033Z,25.02
2022-09-14T01:24:08.553Z,18.23
2022-09-14T01:29:10.225Z,23.45
2022-09-14T01:34:21.022Z,19.95
2022-09-14T01:39:23.540Z,17.00
2022-09-14T01:44:30.893Z,21.92
2022-09-14T01:49:41.429Z,26.35
2022-09-14T01:54:49.726Z,18.67
2022-09-14T01:59:55.797Z,22.10
2022-09-14T02:05:06.689Z,17.65
2022-09-14T02:10:11.676Z,18.48
2022-09-14T02:15:15.209Z,20.67
2022-09-14T02:20:52.316Z,25.25
2022-09-14T02:25:54.246Z,19.60
2022-09-14T02:31:01.725Z,24.38
2022-09-14T02:36:13.543Z,27.70
2022-09-14T02:41:41.977Z,30.15
2022-09-14T02:46:54.150Z,27.55
2022-09-14T02:52:15.906Z,29.00
2022-09-14T02:57:17.616Z,29.25
2022-09-14T03:02:19.360Z,32.90
2022-09-14T03:07:21.044Z,33.72
2022-09-14T03:12:22.742Z,27.27
2022-09-14T03:17:24.383Z,23.65
2022-09-14T03:22:26.042Z,28.45
2022-09-14T03:27:27.821Z,21.30
2022-09-14T03:32:29.512Z,32.15
2022-09-14T03:37:31.221Z,27.98
2022-09-14T03:42:33.012Z,30.60
2022-09-14T03:47:34.613Z,29.02
2022-09-14T03:52:37.460Z,30.08
2022-09-14T03:57:39.168Z,35.70
2022-09-14T04:02:41.239Z,31.10
2022-09-14T04:07:42.997Z,31.35
2022-09-14T04:12:44.735Z,29.08
2022-09-14T04:17:47.577Z,33.70
2022-09-14T04:22:49.194Z,30.38
2022-09-14T04:28:04.139Z,21.35
2022-09-14T04:33:12.621Z,18.38
2022-09-14T04:38:14.323Z,19.65
2022-09-14T04:43:16.420Z,14.52
2022-09-14T04:48:18.661Z,12.88
2022-09-14T04:53:20.267Z,18.90
2022-09-14T04:58:21.862Z,19.85
2022-09-14T05:03:23.590Z,23.33
2022-09-14T05:08:25.240Z,17.83
2022-09-14T05:13:28.116Z,20.77
2022-09-14T05:18:29.777Z,19.17
2022-09-14T05:23:31.882Z,22.33
2022-09-14T05:28:34.720Z,27.15
2022-09-14T05:33:37.198Z,18.10
2022-09-14T05:38:39.896Z,17.58
2022-09-14T05:43:42.564Z,19.73
2022-09-14T05:48:44.275Z,19.13
2022-09-14T05:53:54.305Z,21.42
2022-09-14T05:58:56.158Z,18.08
2022-09-14T06:04:00.357Z,16.88
2022-09-14T06:09:02.361Z,17.70
2022-09-14T06:14:05.114Z,16.73
2022-09-14T06:19:06.797Z,15.55
2022-09-14T06:24:10.276Z,17.42
2022-09-14T06:29:11.958Z,13.98
2022-09-14T06:34:13.642Z,18.85
2022-09-14T06:39:15.398Z,22.08
2022-09-14T06:44:17.108Z,20.95
2022-09-14T06:49:22.878Z,16.77
2022-09-14T06:54:25.388Z,21.30
2022-09-14T06:59:27.073Z,16.52
2022-09-14T07:04:28.823Z,24.00
2022-09-14T07:09:31.720Z,16.45
2022-09-14T07:14:33.485Z,16.60
2022-09-14T07:19:35.220Z,15.63
2022-09-14T07:24:36.829Z,9.07
2022-09-14T07:29:38.465Z,13.55
2022-09-14T07:34:40.161Z,12.50
2022-09-14T07:39:42.091Z,22.75
2022-09-14T07:44:43.736Z,17.25
2022-09-14T07:49:45.472Z,12.02
2022-09-14T07:54:47.132Z,15.88
2022-09-14T07:59:48.817Z,19.55
2022-09-14T08:04:52.884Z,15.93
2022-09-14T08:09:54.591Z,11.15
2022-09-14T08:14:56.279Z,8.50
2022-09-14T08:19:57.898Z,8.27
2022-09-14T08:24:59.554Z,9.07
2022-09-14T08:30:01.318Z,11.73
2022-09-14T08:35:03.069Z,10.95
2022-09-14T08:40:05.449Z,10.77
2022-09-14T08:45:09.742Z,12.55
2022-09-14T08:55:41.397Z,8.35
2022-09-14T09:00:51.119Z,11.55
2022-09-14T09:06:18.049Z,10.73
2022-09-14T09:11:22.706Z,6.60
2022-09-14T09:16:26.031Z,6.82
2022-09-14T09:21:35.449Z,8.52
2022-09-14T09:26:38.991Z,8.77
2022-09-14T09:31:48.755Z,7.70
2022-09-14T09:36:50.702Z,7.57
2022-09-14T09:42:07.428Z,6.25
2022-09-14T09:47:09.195Z,9.88
2022-09-14T09:52:16.768Z,5.50
2022-09-14T09:57:31.300Z,7.72
2022-09-14T10:07:39.203Z,9.65
2022-09-14T10:12:49.301Z,6.13
2022-09-14T10:17:55.355Z,6.10
2022-09-14T10:23:17.641Z,7.60
2022-09-14T10:28:24.117Z,6.90
2022-09-14T10:33:25.924Z,7.35
2022-09-14T10:38:52.875Z,9.48
2022-09-14T10:44:05.369Z,6.78
2022-09-14T10:49:24.567Z,11.35
2022-09-14T10:54:32.541Z,20.60
2022-09-14T10:59:43.380Z,18.85
2022-09-14T11:05:07.113Z,21.38
2022-09-14T11:10:30.057Z,26.50
2022-09-14T11:16:06.070Z,25.85
2022-09-14T11:21:39.347Z,29.67
2022-09-14T11:26:45.245Z,37.67
2022-09-14T11:32:19.739Z,36.25
2022-09-14T11:37:41.559Z,33.22
2022-09-14T11:42:46.144Z,35.75
2022-09-14T11:48:01.312Z,35.20
2022-09-14T11:53:15.510Z,38.08
2022-09-14T11:58:23.693Z,38.45
2022-09-14T12:03:52.141Z,38.50
2022-09-14T12:08:54.110Z,33.08
2022-09-14T12:14:19.314Z,35.72
2022-09-14T12:38:38.183Z,25.05
2022-09-14T13:28:32.059Z,57.50
2022-09-14T13:33:33.826Z,67.97
2022-09-14T13:38:37.985Z,50.28
2022-09-14T13:43:43.636Z,42.65
2022-09-14T13:48:45.599Z,34.25
2022-09-14T13:54:36.587Z,40.20
2022-09-14T14:00:14.231Z,45.53
2022-09-14T14:05:41.410Z,37.25
2022-09-14T14:10:47.436Z,32.10
2022-09-14T14:15:49.077Z,37.50
2022-09-14T14:20:50.805Z,35.58
2022-09-14T14:26:08.759Z,38.75
2022-09-14T14:31:18.411Z,36.85
2022-09-14T14:36:20.149Z,46.97
2022-09-14T14:41:22.877Z,61.25
2022-09-14T14:46:32.013Z,62.95
2022-09-14T14:51:33.804Z,73.07
2022-09-14T14:56:38.707Z,55.03
2022-09-14T15:01:40.426Z,70.38
2022-09-14T15:06:42.312Z,56.08
2022-09-14T15:11:44.314Z,36.17
2022-09-14T15:16:47.949Z,39.35
2022-09-14T15:21:49.722Z,46.90
2022-09-14T15:26:51.638Z,32.80
2022-09-14T15:31:53.418Z,38.72
2022-09-14T15:36:57.360Z,33.88
2022-09-14T15:42:03.245Z,34.42
2022-09-14T15:47:05.174Z,32.10
2022-09-14T15:52:08.178Z,36.35
2022-09-14T15:57:11.928Z,28.85
2022-09-14T16:02:13.719Z,38.20
2022-09-14T16:07:15.597Z,24.67
2022-09-14T16:12:17.243Z,25.30
2022-09-14T16:17:18.952Z,32.92
2022-09-14T16:22:21.743Z,29.02
2022-09-14T16:27:23.541Z,26.15
2022-09-14T16:32:25.392Z,32.58
2022-09-14T16:37:27.104Z,27.52
2022-09-14T16:42:28.821Z,28.33
2022-09-14T16:47:32.184Z,27.38
2022-09-14T16:52:33.955Z,31.63
2022-09-14T16:57:35.792Z,34.80
2022-09-14T17:02:59.503Z,33.65
2022-09-14T17:08:01.446Z,41.00
2022-09-14T17:13:03.171Z,28.10
2022-09-14T17:18:05.418Z,31.40
2022-09-14T17:23:07.070Z,36.28
2022-09-14T17:28:08.675Z,34.03
2022-09-14T17:33:10.422Z,36.03
2022-09-14T17:38:12.153Z,45.78
2022-09-14T17:43:14.544Z,36.75
2022-09-14T17:48:16.323Z,41.97
2022-09-14T17:53:18.186Z,59.35
2022-09-14T17:58:20.004Z,66.78
2022-09-14T18:03:21.780Z,81.85
2022-09-14T18:08:23.488Z,84.65
2022-09-14T18:13:25.228Z,75.22
2022-09-14T18:18:27.297Z,91.60
2022-09-14T18:23:29.409Z,71.85
2022-09-14T18:28:31.610Z,63.22
2022-09-14T18:33:36.548Z,67.28
2022-09-14T18:38:38.398Z,62.35
2022-09-14T18:43:47.027Z,74.50
2022-09-14T18:48:51.340Z,73.18
2022-09-14T18:54:03.774Z,71.50
2022-09-14T18:59:11.498Z,75.30
2022-09-14T19:04:15.828Z,76.40
2022-09-14T19:14:20.653Z,68.10
2022-09-14T19:19:23.176Z,88.05
2022-09-14T19:24:30.629Z,68.57
2022-09-14T19:29:32.853Z,74.28
2022-09-14T19:34:34.670Z,82.10
2022-09-14T19:39:36.681Z,80.95
2022-09-14T19:44:41.624Z,81.00
2022-09-14T19:49:43.770Z,79.25
2022-09-14T19:54:45.663Z,79.32
2022-09-14T19:59:47.670Z,84.45
2022-09-14T20:05:03.886Z,98.70
2022-09-14T20:10:06.099Z,76.63
2022-09-14T20:15:08.191Z,86.43
2022-09-14T20:20:11.395Z,82.68
2022-09-14T20:25:13.574Z,100.00
2022-09-14T20:30:15.278Z,94.35
2022-09-14T20:35:17.050Z,75.38
2022-09-14T20:40:18.855Z,82.68
2022-09-14T20:45:20.625Z,90.65
2022-09-14T20:50:22.296Z,91.28
2022-09-14T20:55:24.057Z,80.60
2022-09-14T21:00:25.770Z,77.43
2022-09-14T21:05:27.966Z,80.93
2022-09-14T21:10:30.088Z,100.10
2022-09-14T21:15:33.069Z,83.25
2022-09-14T21:20:38.756Z,82.68
2022-09-14T21:25:40.608Z,89.97
2022-09-14T21:30:42.339Z,99.93
2022-09-14T21:35:44.104Z,87.20
2022-09-14T21:40:45.759Z,89.00
2022-09-14T21:45:47.409Z,80.95
2022-09-14T21:50:49.099Z,82.68
2022-09-14T21:55:50.832Z,93.05
2022-09-14T22:00:57.721Z,102.90
2022-09-14T22:06:05.980Z,103.35
2022-09-14T22:11:20.055Z,98.38
2022-09-14T22:16:25.569Z,95.68
2022-09-14T22:21:28.876Z,90.40
2022-09-14T22:26:32.040Z,73.50
2022-09-14T22:31:33.841Z,89.50
2022-09-14T22:36:35.850Z,84.40
2022-09-14T22:41:38.025Z,85.70
2022-09-14T22:46:39.717Z,113.35
2022-09-14T22:51:41.588Z,95.43
2022-09-14T22:56:43.313Z,100.65
2022-09-14T23:01:45.104Z,97.75
2022-09-14T23:06:48.124Z,88.25
2022-09-14T23:11:49.803Z,90.63
2022-09-14T23:16:51.539Z,92.90
2022-09-14T23:21:53.176Z,116.60
2022-09-14T23:26:54.881Z,90.50
2022-09-14T23:31:56.562Z,115.85
2022-09-14T23:36:58.310Z,111.05
2022-09-14T23:42:00.083Z,100.65
2022-09-14T23:47:01.986Z,107.35
2022-09-14T23:52:03.731Z,125.63
2022-09-14T23:57:05.500Z,128.18
